Dease Lake, Canada
Current Conditions -  °F | °C
As of 8:00 AM on Thursday 29 Jan 2015 (Local Time) from CYQH Reporting Station
Light Snow Light Snow  
Wind Chill:   Ceiling: 2000
Heat Index:   Visibility: 20mi
Dew Point: -4°   Wind: 3mph
Humidity: 85%   Direction: 290°WNW
Pressure: 30.08"   Gusts: NA
Location:  58.44°N, 129.99°W
Report Text: CYQH 291600Z 29003KT 20SM -SN BKN020 M18/M20 A3008 RMK SC7 SLP253
Loading
Personal Weather Stations






























Interactive Weather Map New forecast layout! Learn more

10-Day Weather Forecast

Advertisements
Track Severe Weather on mobile